Time;durP1;ratioP1;P1;durP2;ratioP2;P2;SDS_P1;SDS_P2;PMS_P1;PMS_P2;Temp;Humidity;BMP_temperature;BMP_pressure;BME280_temperature;BME280_humidity;BME280_pressure;Samples;Min_cycle;Max_cycle;Signal;HPM_P1;HPM_P2
2023/08/25 00:00:01;;;;;;;;;;;;;;;16.82;50.25;95160.72;4974915;28;19998;-77
2023/08/25 00:02:27;;;;;;;;;;;;;;;16.74;50.05;95157.31;4975069;28;20222;-78
2023/08/25 00:04:52;;;;;;;;;;;;;;;16.70;50.42;95160.69;4974873;28;20028;-76
2023/08/25 00:07:17;;;;;;;;;;;;;;;16.65;50.04;95164.03;4957540;28;19957;-77
2023/08/25 00:09:46;;;;;;;;;;;;;;;16.62;50.04;95167.19;4973465;28;20106;-77
2023/08/25 00:12:11;;;;;;;;;;;;;;;16.59;50.56;95160.41;4972827;28;19937;-77
2023/08/25 00:14:37;;;;;;;;;;;;;;;16.58;50.40;95149.88;4953316;28;19921;-77
2023/08/25 00:17:03;;;;;;;;;;;;;;;16.53;50.63;95161.31;4975473;28;19929;-77
2023/08/25 00:19:28;;;;;;;;;;;;;;;16.52;50.49;95165.03;4956815;28;20234;-78
2023/08/25 00:21:53;;;;;;;;;;;;;;;16.48;50.79;95169.22;4975421;28;19928;-77
2023/08/25 00:24:18;;;;;;;;;;;;;;;16.45;51.21;95162.44;4956355;28;20438;-77
2023/08/25 00:26:44;;;;;;;;;;;;;;;16.51;51.17;95168.78;4974533;28;19991;-76
2023/08/25 00:29:09;;;;;;;;;;;;;;;16.46;50.22;95157.91;4977684;28;19964;-79
2023/08/25 00:31:34;;;;;;;;;;;;;;;16.38;49.89;95162.53;4981080;28;19926;-78
2023/08/25 00:34:02;;;;;;;;;;;;;;;16.38;50.84;95157.16;4978534;28;19925;-78
2023/08/25 00:36:27;;;;;;;;;;;;;;;16.38;50.37;95156.34;4978411;28;20320;-77
2023/08/25 00:38:53;;;;;;;;;;;;;;;16.33;50.50;95153.50;4980199;28;20096;-76
2023/08/25 00:41:18;;;;;;;;;;;;;;;16.29;51.27;95155.00;4983908;28;19984;-78
2023/08/25 00:43:43;;;;;;;;;;;;;;;16.25;51.20;95155.44;4985309;28;20004;-78
2023/08/25 00:46:09;;;;;;;;;;;;;;;16.23;51.25;95146.81;4969402;28;20038;-77
2023/08/25 00:48:34;;;;;;;;;;;;;;;16.09;51.47;95129.19;4982279;28;20136;-77
2023/08/25 00:50:59;;;;;;;;;;;;;;;16.04;51.46;95131.75;4966546;28;21591;-78
2023/08/25 00:53:25;;;;;;;;;;;;;;;16.06;51.98;95133.16;4964929;28;19918;-78
2023/08/25 00:55:50;;;;;;;;;;;;;;;16.04;51.81;95123.69;4982452;28;19936;-78
2023/08/25 00:58:16;;;;;;;;;;;;;;;16.05;52.09;95122.66;4984415;28;19940;-77
2023/08/25 01:00:41;;;;;;;;;;;;;;;16.09;51.40;95129.19;4983515;28;19930;-77
2023/08/25 01:03:07;;;;;;;;;;;;;;;16.10;51.76;95123.59;4993555;22;20129;-73
2023/08/25 01:05:33;;;;;;;;;;;;;;;16.11;51.42;95119.88;4983697;28;20412;-74
2023/08/25 01:07:58;;;;;;;;;;;;;;;16.11;51.70;95116.34;4979399;28;19921;-73
2023/08/25 01:10:35;;;;;;;;;;;;;;;16.10;51.60;95106.66;4984163;28;19925;-73
2023/08/25 01:13:24;;;;;;;;;;;;;;;16.12;51.94;95109.97;4969690;28;19922;-74
2023/08/25 01:15:49;;;;;;;;;;;;;;;16.15;51.70;95108.69;4975099;28;19933;-73
2023/08/25 01:18:18;;;;;;;;;;;;;;;16.15;51.63;95106.00;4975669;28;20383;-74
2023/08/25 01:20:45;;;;;;;;;;;;;;;16.15;51.96;95106.84;4975336;28;19925;-73
2023/08/25 01:23:11;;;;;;;;;;;;;;;16.11;51.87;95098.38;4963771;28;19929;-73
2023/08/25 01:25:36;;;;;;;;;;;;;;;16.12;51.75;95088.47;4981745;28;19929;-74
2023/08/25 01:28:03;;;;;;;;;;;;;;;16.12;51.92;95085.78;4957099;28;19921;-72
2023/08/25 01:30:31;;;;;;;;;;;;;;;16.11;51.87;95078.75;4981777;28;19922;-72
2023/08/25 01:32:57;;;;;;;;;;;;;;;16.07;52.01;95070.34;4979238;28;20515;-73
2023/08/25 01:35:28;;;;;;;;;;;;;;;16.09;51.81;95070.97;4976942;28;19926;-74
2023/08/25 01:37:57;;;;;;;;;;;;;;;16.02;51.55;95070.22;4976939;28;19921;-74
2023/08/25 01:40:42;;;;;;;;;;;;;;;16.04;51.90;95072.69;4961059;28;20401;-73
2023/08/25 01:43:09;;;;;;;;;;;;;;;16.07;51.37;95070.34;4984595;28;19969;-74
2023/08/25 01:45:36;;;;;;;;;;;;;;;16.05;51.66;95067.06;4988298;28;20402;-73
2023/08/25 01:48:01;;;;;;;;;;;;;;;16.04;51.27;95065.44;4975625;28;20780;-72
2023/08/25 01:50:26;;;;;;;;;;;;;;;15.94;51.31;95065.16;4977082;28;19925;-74
2023/08/25 01:52:52;;;;;;;;;;;;;;;15.91;51.22;95071.78;4977188;28;20564;-74
2023/08/25 01:55:17;;;;;;;;;;;;;;;15.88;51.11;95072.25;4977472;28;20263;-73
2023/08/25 01:57:42;;;;;;;;;;;;;;;15.89;51.52;95071.22;4978961;28;19945;-72
2023/08/25 02:00:08;;;;;;;;;;;;;;;15.91;51.20;95077.16;4976618;28;19957;-73
2023/08/25 02:02:33;;;;;;;;;;;;;;;15.86;51.18;95072.47;4987482;28;19933;-73
2023/08/25 02:04:58;;;;;;;;;;;;;;;15.85;51.71;95076.19;4977456;28;20015;-73
2023/08/25 02:07:23;;;;;;;;;;;;;;;15.90;51.89;95069.34;4972562;28;19966;-74
2023/08/25 02:09:52;;;;;;;;;;;;;;;15.86;51.49;95074.34;4976215;28;20405;-74
2023/08/25 02:12:17;;;;;;;;;;;;;;;15.78;52.29;95077.31;4976635;28;19930;-75
2023/08/25 02:14:43;;;;;;;;;;;;;;;15.66;52.19;95070.03;4983668;28;19928;-72
2023/08/25 02:17:08;;;;;;;;;;;;;;;15.64;51.79;95063.25;4975611;28;20242;-75
2023/08/25 02:19:34;;;;;;;;;;;;;;;15.64;51.95;95061.41;4973224;28;19961;-74
2023/08/25 02:21:59;;;;;;;;;;;;;;;15.60;51.17;95065.53;4982953;28;20024;-73
2023/08/25 02:24:24;;;;;;;;;;;;;;;15.59;51.36;95055.88;4976425;28;19932;-73
2023/08/25 02:26:49;;;;;;;;;;;;;;;15.47;50.95;95053.88;4977593;28;19979;-74
2023/08/25 02:29:15;;;;;;;;;;;;;;;15.36;51.17;95047.41;4977865;28;20000;-73
2023/08/25 02:31:40;;;;;;;;;;;;;;;15.41;52.29;95048.59;4977181;28;20682;-74
2023/08/25 02:34:05;;;;;;;;;;;;;;;15.44;51.50;95040.91;4958046;28;19919;-73
2023/08/25 02:36:30;;;;;;;;;;;;;;;15.44;51.50;95032.06;4959744;28;20016;-73
2023/08/25 02:38:56;;;;;;;;;;;;;;;15.48;52.01;95042.13;4977601;28;20405;-73
2023/08/25 02:41:21;;;;;;;;;;;;;;;15.48;51.36;95042.13;4978756;28;19928;-74
2023/08/25 02:43:46;;;;;;;;;;;;;;;15.49;51.83;95042.94;4959535;28;19925;-74
2023/08/25 02:46:11;;;;;;;;;;;;;;;15.46;50.78;95032.66;4974309;28;20158;-74
2023/08/25 02:48:37;;;;;;;;;;;;;;;15.34;52.14;95025.34;4972703;28;20537;-74
2023/08/25 02:51:02;;;;;;;;;;;;;;;15.38;51.81;95020.38;4973200;28;19926;-74
2023/08/25 02:53:27;;;;;;;;;;;;;;;15.36;50.92;95027.81;4975757;28;20062;-73
2023/08/25 02:55:52;;;;;;;;;;;;;;;15.34;52.00;95030.72;4972690;28;20481;-73
2023/08/25 02:58:18;;;;;;;;;;;;;;;15.34;52.05;95027.22;4970393;28;19926;-74
2023/08/25 03:00:43;;;;;;;;;;;;;;;15.37;52.31;95013.38;4971379;28;19928;-74
2023/08/25 03:03:08;;;;;;;;;;;;;;;15.40;51.93;95017.47;4984547;28;19937;-73
2023/08/25 03:05:34;;;;;;;;;;;;;;;15.36;53.17;95015.22;4970604;28;19938;-73
2023/08/25 03:07:59;;;;;;;;;;;;;;;15.40;52.71;95010.22;4968638;28;20352;-73
2023/08/25 03:10:24;;;;;;;;;;;;;;;15.33;52.07;95001.47;4970442;28;19922;-74
2023/08/25 03:12:49;;;;;;;;;;;;;;;15.21;50.37;94994.16;4975155;28;19962;-73
2023/08/25 03:15:15;;;;;;;;;;;;;;;15.19;52.18;95000.75;4958652;28;19952;-74
2023/08/25 03:17:41;;;;;;;;;;;;;;;15.16;51.79;94996.66;4974008;28;20033;-74
2023/08/25 03:20:06;;;;;;;;;;;;;;;15.16;51.06;94996.66;4970376;28;19926;-74
2023/08/25 03:22:33;;;;;;;;;;;;;;;15.08;51.62;94997.78;4976509;28;20418;-73
2023/08/25 03:24:58;;;;;;;;;;;;;;;15.10;51.62;94993.00;4975159;28;19929;-73
2023/08/25 03:27:23;;;;;;;;;;;;;;;15.15;51.67;94995.03;4975050;28;19933;-74
2023/08/25 03:29:48;;;;;;;;;;;;;;;15.16;51.67;94998.56;4975061;28;20375;-74
2023/08/25 03:32:14;;;;;;;;;;;;;;;15.09;51.38;94995.91;4976093;28;19969;-74
2023/08/25 03:34:39;;;;;;;;;;;;;;;15.10;52.53;94995.69;4971182;28;19926;-74
2023/08/25 03:37:05;;;;;;;;;;;;;;;15.10;52.70;94998.38;4973088;28;19922;-74
2023/08/25 03:39:31;;;;;;;;;;;;;;;15.17;52.98;95001.00;4970519;28;19925;-74
2023/08/25 03:41:56;;;;;;;;;;;;;;;15.24;52.96;95001.72;4959963;28;19958;-73
2023/08/25 03:44:21;;;;;;;;;;;;;;;15.28;52.81;95010.16;4972802;28;19956;-73
2023/08/25 03:46:46;;;;;;;;;;;;;;;15.17;51.48;95000.19;4968755;28;19976;-73
2023/08/25 03:49:11;;;;;;;;;;;;;;;15.09;52.44;95001.28;4974903;28;19939;-74
2023/08/25 03:51:37;;;;;;;;;;;;;;;15.04;53.10;94993.91;4957946;28;19925;-74
2023/08/25 03:54:02;;;;;;;;;;;;;;;15.00;54.18;94990.03;4968902;28;19928;-74
2023/08/25 03:56:28;;;;;;;;;;;;;;;15.09;53.96;94979.81;4958507;28;20498;-74
2023/08/25 03:58:53;;;;;;;;;;;;;;;15.19;53.65;94980.16;4975647;28;19996;-74
2023/08/25 04:01:18;;;;;;;;;;;;;;;15.20;52.59;94980.97;4970772;28;20036;-74
2023/08/25 04:03:43;;;;;;;;;;;;;;;15.23;53.39;94986.69;4965205;28;20505;-73
2023/08/25 04:06:09;;;;;;;;;;;;;;;15.26;53.16;94992.66;4958549;28;19926;-74
2023/08/25 04:08:34;;;;;;;;;;;;;;;15.29;53.17;94986.84;4975033;28;19976;-73
2023/08/25 04:10:59;;;;;;;;;;;;;;;15.28;53.55;94987.88;4975028;28;19921;-74
2023/08/25 04:13:25;;;;;;;;;;;;;;;15.29;53.65;94984.16;4973561;28;19922;-74
2023/08/25 04:15:56;;;;;;;;;;;;;;;15.32;53.95;94978.34;4974577;28;19926;-73
2023/08/25 04:18:22;;;;;;;;;;;;;;;15.42;54.07;94981.34;4973266;28;19934;-74
2023/08/25 04:20:47;;;;;;;;;;;;;;;15.43;53.98;94984.84;4974992;28;19929;-73
2023/08/25 04:23:12;;;;;;;;;;;;;;;15.59;53.90;94967.34;4975196;28;20302;-73
2023/08/25 04:25:37;;;;;;;;;;;;;;;15.64;53.43;94964.81;4974476;28;19956;-74
2023/08/25 04:28:03;;;;;;;;;;;;;;;15.78;52.90;94960.09;4971909;28;19969;-73
2023/08/25 04:30:28;;;;;;;;;;;;;;;15.85;53.14;94959.97;4973276;28;19955;-73
2023/08/25 04:32:53;;;;;;;;;;;;;;;15.93;53.24;94948.91;4974235;28;19929;-74
2023/08/25 04:35:19;;;;;;;;;;;;;;;16.06;52.78;94960.50;4972580;28;19988;-74
2023/08/25 04:37:47;;;;;;;;;;;;;;;16.17;52.06;94956.22;4973606;28;20017;-74
2023/08/25 04:40:12;;;;;;;;;;;;;;;16.19;51.96;94949.59;4971807;28;20295;-73
2023/08/25 04:42:38;;;;;;;;;;;;;;;16.29;52.36;94937.44;4976363;28;19933;-72
2023/08/25 04:45:04;;;;;;;;;;;;;;;16.34;52.20;94926.81;4978490;28;19969;-72
2023/08/25 04:47:29;;;;;;;;;;;;;;;16.28;52.39;94920.50;4974674;28;19932;-72
2023/08/25 04:49:57;;;;;;;;;;;;;;;16.25;52.93;94919.09;4973471;28;19918;-73
2023/08/25 04:52:22;;;;;;;;;;;;;;;16.22;53.34;94933.00;4973074;28;19922;-73
2023/08/25 04:54:48;;;;;;;;;;;;;;;16.23;52.67;94934.66;4971342;28;19925;-72
2023/08/25 04:57:13;;;;;;;;;;;;;;;16.37;51.67;94923.72;4971680;28;19918;-73
2023/08/25 04:59:39;;;;;;;;;;;;;;;16.54;52.01;94929.22;4970434;28;19928;-73
2023/08/25 05:02:04;;;;;;;;;;;;;;;16.66;50.74;94941.84;4972232;28;19929;-72
2023/08/25 05:04:29;;;;;;;;;;;;;;;16.75;51.38;94946.63;4974796;28;19936;-73
2023/08/25 05:06:54;;;;;;;;;;;;;;;16.85;51.01;94939.84;4968086;28;20408;-76
2023/08/25 05:09:19;;;;;;;;;;;;;;;16.92;50.59;94945.09;4974442;28;19918;-74
2023/08/25 05:11:45;;;;;;;;;;;;;;;17.05;50.21;94950.22;4975199;28;19925;-75
2023/08/25 05:14:11;;;;;;;;;;;;;;;16.99;50.75;94949.28;4974331;28;19922;-75
2023/08/25 05:16:37;;;;;;;;;;;;;;;16.79;51.49;94940.78;4974069;28;20440;-75
2023/08/25 05:19:02;;;;;;;;;;;;;;;16.86;50.91;94938.81;4974189;28;19929;-73
2023/08/25 05:21:27;;;;;;;;;;;;;;;16.95;51.44;94940.06;4976360;28;19964;-74
2023/08/25 05:24:12;;;;;;;;;;;;;;;17.06;51.81;94937.59;4974474;28;19968;-75
2023/08/25 05:26:38;;;;;;;;;;;;;;;17.21;51.85;94937.97;4975927;28;19952;-74
2023/08/25 05:29:03;;;;;;;;;;;;;;;17.48;50.63;94953.56;4979677;28;20377;-73
2023/08/25 05:31:28;;;;;;;;;;;;;;;17.69;51.07;94969.28;4979696;28;19984;-74
2023/08/25 05:33:53;;;;;;;;;;;;;;;17.77;50.36;94991.25;4975555;28;20011;-74
2023/08/25 05:36:19;;;;;;;;;;;;;;;18.20;49.52;95007.16;4972038;28;19929;-74
2023/08/25 05:38:44;;;;;;;;;;;;;;;18.34;48.47;95023.00;4979932;28;19932;-74
2023/08/25 05:41:10;;;;;;;;;;;;;;;18.09;48.75;95016.13;4982282;28;20056;-72
2023/08/25 05:43:35;;;;;;;;;;;;;;;18.00;49.45;95008.41;4980004;28;20043;-73
2023/08/25 05:46:00;;;;;;;;;;;;;;;17.95;49.69;95015.59;4976271;28;19965;-74
2023/08/25 05:48:25;;;;;;;;;;;;;;;17.94;48.55;94987.81;4977929;28;19973;-74
2023/08/25 05:50:51;;;;;;;;;;;;;;;17.99;48.69;94989.81;4977688;28;19965;-74
2023/08/25 05:53:16;;;;;;;;;;;;;;;17.83;49.59;94983.28;4979757;28;19961;-74
2023/08/25 05:55:41;;;;;;;;;;;;;;;18.01;48.35;94976.91;4965530;28;20624;-74
2023/08/25 05:58:07;;;;;;;;;;;;;;;17.98;48.42;94978.22;4978836;28;19933;-74
2023/08/25 06:00:32;;;;;;;;;;;;;;;18.16;48.73;94995.22;4973688;28;20471;-74
2023/08/25 06:02:57;;;;;;;;;;;;;;;18.17;46.78;94986.91;4975423;28;19930;-75
2023/08/25 06:05:22;;;;;;;;;;;;;;;18.32;48.31;95001.69;4978324;28;20016;-75
2023/08/25 06:07:48;;;;;;;;;;;;;;;18.31;50.67;95008.16;4975062;28;19949;-74
2023/08/25 06:10:13;;;;;;;;;;;;;;;18.44;50.30;95020.50;4977237;28;20028;-75
2023/08/25 06:12:38;;;;;;;;;;;;;;;17.80;51.06;95009.63;4975820;28;19926;-75
2023/08/25 06:15:04;;;;;;;;;;;;;;;17.87;49.55;94984.47;4988117;28;19961;-75
2023/08/25 06:17:29;;;;;;;;;;;;;;;18.03;47.97;94967.56;4974998;28;19918;-74
2023/08/25 06:19:54;;;;;;;;;;;;;;;18.20;47.38;94961.38;4974701;28;20005;-74
2023/08/25 06:22:20;;;;;;;;;;;;;;;18.39;49.26;94988.09;4980378;28;19973;-75
2023/08/25 06:24:45;;;;;;;;;;;;;;;18.42;50.29;94983.03;4976577;28;20065;-75
2023/08/25 06:27:11;;;;;;;;;;;;;;;18.51;49.46;94974.53;4976526;28;20031;-75
2023/08/25 06:29:36;;;;;;;;;;;;;;;18.53;49.87;94981.31;4976831;28;20286;-74
2023/08/25 06:32:01;;;;;;;;;;;;;;;18.52;49.58;94993.16;4974442;28;20012;-73
2023/08/25 06:34:27;;;;;;;;;;;;;;;18.51;48.58;94990.69;4975367;28;19969;-74
2023/08/25 06:36:52;;;;;;;;;;;;;;;18.65;49.62;94991.22;4974740;28;19957;-74
2023/08/25 06:39:17;;;;;;;;;;;;;;;18.43;48.38;94983.84;4975766;28;20405;-74
2023/08/25 06:41:43;;;;;;;;;;;;;;;18.50;49.46;94979.13;4979401;28;20531;-74
2023/08/25 06:44:08;;;;;;;;;;;;;;;18.66;48.80;94984.78;4978282;28;20378;-74
2023/08/25 06:46:33;;;;;;;;;;;;;;;18.83;49.46;94984.75;4977454;28;19922;-74
2023/08/25 06:48:58;;;;;;;;;;;;;;;18.74;47.66;94978.16;4971835;28;19993;-74
2023/08/25 06:51:24;;;;;;;;;;;;;;;18.97;47.05;94982.56;4970396;28;20529;-74
2023/08/25 06:53:49;;;;;;;;;;;;;;;18.88;50.23;94978.63;4973890;28;19926;-74
2023/08/25 06:56:14;;;;;;;;;;;;;;;18.83;50.27;94979.34;4974547;28;20004;-74
2023/08/25 06:58:39;;;;;;;;;;;;;;;19.02;48.25;94976.41;4968471;28;20036;-74
2023/08/25 07:01:05;;;;;;;;;;;;;;;19.18;48.56;94982.84;4974368;28;19965;-73
2023/08/25 07:03:30;;;;;;;;;;;;;;;19.19;48.59;94984.47;4977295;28;19961;-73
2023/08/25 07:05:55;;;;;;;;;;;;;;;18.90;49.00;94979.22;4977833;28;19965;-73
2023/08/25 07:08:21;;;;;;;;;;;;;;;18.97;48.21;94977.16;4976205;28;19929;-73
2023/08/25 07:10:46;;;;;;;;;;;;;;;19.08;49.73;94983.50;4978429;28;19953;-74
2023/08/25 07:13:11;;;;;;;;;;;;;;;19.13;46.47;94985.44;4977044;28;20061;-71
2023/08/25 07:15:36;;;;;;;;;;;;;;;19.11;49.03;94984.88;4978265;28;19922;-73
2023/08/25 07:18:03;;;;;;;;;;;;;;;18.86;49.53;94978.06;4978877;28;19933;-74
2023/08/25 07:20:29;;;;;;;;;;;;;;;19.09;47.28;94982.44;4978008;28;19948;-72
2023/08/25 07:22:54;;;;;;;;;;;;;;;19.21;48.04;94971.56;4976286;28;19925;-75
2023/08/25 07:25:19;;;;;;;;;;;;;;;19.20;48.00;94978.81;4978547;28;19993;-72
2023/08/25 07:27:45;;;;;;;;;;;;;;;19.43;48.61;94965.38;4988753;28;20024;-74
2023/08/25 07:30:10;;;;;;;;;;;;;;;19.49;48.22;94982.44;4976173;28;20463;-72
2023/08/25 07:32:35;;;;;;;;;;;;;;;19.58;46.31;94987.16;4976123;28;20021;-75
2023/08/25 07:35:01;;;;;;;;;;;;;;;19.88;48.79;94998.56;4974034;28;19922;-74
2023/08/25 07:37:26;;;;;;;;;;;;;;;19.93;48.85;95004.03;4973043;28;19976;-73
2023/08/25 07:39:52;;;;;;;;;;;;;;;20.01;48.85;95002.78;4977245;28;20458;-73
2023/08/25 07:42:17;;;;;;;;;;;;;;;18.65;51.57;94993.91;4961946;28;19918;-74
2023/08/25 07:44:43;;;;;;;;;;;;;;;19.30;50.33;94997.06;4977823;28;20513;-73
2023/08/25 07:47:08;;;;;;;;;;;;;;;19.45;49.76;94988.34;4969599;28;19948;-74
2023/08/25 07:49:33;;;;;;;;;;;;;;;19.71;48.90;94983.25;4977746;28;19968;-74
2023/08/25 07:51:58;;;;;;;;;;;;;;;19.57;49.32;94985.53;4970107;28;20503;-73
2023/08/25 07:54:24;;;;;;;;;;;;;;;19.91;47.80;94986.44;4961592;28;19925;-73
2023/08/25 07:56:49;;;;;;;;;;;;;;;20.04;46.97;94980.66;4971526;28;19926;-69
2023/08/25 07:59:15;;;;;;;;;;;;;;;20.28;44.70;94977.66;4973740;28;19991;-70
2023/08/25 08:01:40;;;;;;;;;;;;;;;20.45;46.02;94965.91;4975207;28;19926;-71
2023/08/25 08:04:07;;;;;;;;;;;;;;;20.68;45.73;94963.94;4975710;28;19930;-71
2023/08/25 08:06:32;;;;;;;;;;;;;;;21.26;47.03;94987.59;4974561;28;20366;-71
2023/08/25 08:08:57;;;;;;;;;;;;;;;21.53;46.08;94973.13;4973685;28;19955;-70
2023/08/25 08:11:23;;;;;;;;;;;;;;;21.89;45.33;94975.97;4974223;28;19928;-71
2023/08/25 08:13:48;;;;;;;;;;;;;;;22.05;44.71;94981.44;4976082;28;19973;-70
2023/08/25 08:16:13;;;;;;;;;;;;;;;21.51;44.96;94986.09;4973665;28;20746;-71
2023/08/25 08:18:39;;;;;;;;;;;;;;;21.88;44.78;94993.31;4957421;28;19945;-71
2023/08/25 08:21:04;;;;;;;;;;;;;;;21.57;45.48;94993.19;4976983;28;19952;-70
2023/08/25 08:23:29;;;;;;;;;;;;;;;21.33;45.28;94990.91;4969368;28;20000;-71
2023/08/25 08:25:55;;;;;;;;;;;;;;;19.91;49.55;94983.72;4973379;28;20024;-70
2023/08/25 08:28:20;;;;;;;;;;;;;;;21.13;46.37;94981.56;4970928;28;20730;-72
2023/08/25 08:30:45;;;;;;;;;;;;;;;20.01;47.98;94988.44;4975071;28;19918;-70
2023/08/25 08:33:11;;;;;;;;;;;;;;;21.03;46.18;94984.19;4971202;28;19957;-71
2023/08/25 08:35:37;;;;;;;;;;;;;;;21.70;44.82;94999.19;4970960;28;19922;-70
2023/08/25 08:38:03;;;;;;;;;;;;;;;21.50;45.28;95011.56;4971210;28;19921;-74
2023/08/25 08:40:31;;;;;;;;;;;;;;;20.71;46.31;95014.81;4974199;28;19929;-72
2023/08/25 08:42:56;;;;;;;;;;;;;;;20.93;46.58;95028.22;4959826;28;19928;-73
2023/08/25 08:45:22;;;;;;;;;;;;;;;20.42;47.16;95025.88;4976242;28;20478;-73
2023/08/25 08:47:49;;;;;;;;;;;;;;;20.96;46.67;95030.44;4957202;28;19956;-75
2023/08/25 08:50:14;;;;;;;;;;;;;;;21.34;45.77;95030.44;4958744;28;19922;-75
2023/08/25 08:52:39;;;;;;;;;;;;;;;20.13;47.52;95035.06;4958194;28;19921;-72
2023/08/25 08:55:09;;;;;;;;;;;;;;;21.21;45.81;95025.47;4974924;28;19933;-75
2023/08/25 08:57:34;;;;;;;;;;;;;;;20.78;46.88;95022.72;4976351;28;19922;-75
2023/08/25 08:59:59;;;;;;;;;;;;;;;20.44;47.06;95021.03;4977319;28;19929;-72
2023/08/25 09:02:28;;;;;;;;;;;;;;;20.69;47.13;95022.34;4980143;28;20556;-74
2023/08/25 09:04:54;;;;;;;;;;;;;;;20.94;46.39;95024.44;4978588;28;20369;-75
2023/08/25 09:07:19;;;;;;;;;;;;;;;21.18;45.73;95021.34;4976211;28;19975;-73
2023/08/25 09:09:45;;;;;;;;;;;;;;;21.28;45.29;95020.63;4962926;28;19922;-75
2023/08/25 09:12:13;;;;;;;;;;;;;;;20.91;46.31;95022.28;4979691;28;20690;-75
2023/08/25 09:14:38;;;;;;;;;;;;;;;21.33;45.67;95027.97;4960419;28;20392;-76
2023/08/25 09:17:06;;;;;;;;;;;;;;;21.28;46.16;95028.75;4980085;28;19917;-75
2023/08/25 09:19:31;;;;;;;;;;;;;;;21.39;45.75;95018.81;4976543;28;19925;-75
2023/08/25 09:21:57;;;;;;;;;;;;;;;21.75;45.39;95008.16;4979824;28;19929;-74
2023/08/25 09:24:22;;;;;;;;;;;;;;;21.92;43.97;95019.91;4965425;28;19933;-74
2023/08/25 09:26:47;;;;;;;;;;;;;;;22.03;44.08;95021.56;4986373;28;19922;-75
2023/08/25 09:29:13;;;;;;;;;;;;;;;22.13;43.85;95027.00;4988312;28;20320;-75
2023/08/25 09:31:38;;;;;;;;;;;;;;;21.94;44.56;95042.09;4987767;28;20056;-74
2023/08/25 09:34:04;;;;;;;;;;;;;;;20.97;45.99;95037.47;4972451;28;19922;-74
2023/08/25 09:36:29;;;;;;;;;;;;;;;20.96;46.37;95025.00;4988330;28;20053;-75
2023/08/25 09:38:54;;;;;;;;;;;;;;;21.66;45.49;95052.25;4984326;28;19937;-74
2023/08/25 09:41:26;;;;;;;;;;;;;;;21.57;45.04;95057.34;4984754;28;20379;-75
2023/08/25 09:43:58;;;;;;;;;;;;;;;20.42;47.75;95052.91;4974048;28;20345;-75
2023/08/25 09:46:27;;;;;;;;;;;;;;;20.94;46.83;95043.38;4989082;28;20453;-75
2023/08/25 09:48:52;;;;;;;;;;;;;;;21.23;46.43;95034.13;4968981;28;20091;-75
2023/08/25 09:51:18;;;;;;;;;;;;;;;21.37;46.06;95029.09;4985395;28;19930;-75
2023/08/25 09:53:43;;;;;;;;;;;;;;;21.64;45.27;95039.81;4982745;28;19929;-75
2023/08/25 09:56:08;;;;;;;;;;;;;;;21.95;43.01;95036.44;4975311;28;19924;-75
2023/08/25 09:58:34;;;;;;;;;;;;;;;22.33;43.88;95036.25;4972613;28;19925;-75
2023/08/25 10:00:59;;;;;;;;;;;;;;;22.52;40.81;95027.59;4989599;28;19973;-75
2023/08/25 10:03:24;;;;;;;;;;;;;;;22.69;42.95;95030.09;4986829;28;19936;-74
2023/08/25 10:05:49;;;;;;;;;;;;;;;22.92;41.79;95034.16;4993436;28;19933;-75
2023/08/25 10:08:15;;;;;;;;;;;;;;;22.73;43.10;95035.78;4987212;28;19917;-75
2023/08/25 10:10:40;;;;;;;;;;;;;;;23.32;41.11;95014.63;4986168;28;19921;-75
2023/08/25 10:13:05;;;;;;;;;;;;;;;23.52;40.58;95011.00;4993436;28;19968;-75
2023/08/25 10:15:31;;;;;;;;;;;;;;;23.76;41.99;95004.19;4992311;28;19993;-75
2023/08/25 10:17:57;;;;;;;;;;;;;;;24.41;40.72;94999.75;4997868;28;19968;-75
2023/08/25 10:20:22;;;;;;;;;;;;;;;24.50;35.93;94998.06;5002336;28;19917;-76
2023/08/25 10:22:49;;;;;;;;;;;;;;;25.41;38.58;95003.25;4982001;28;19964;-76
2023/08/25 10:25:14;;;;;;;;;;;;;;;25.73;36.91;94991.75;4978180;28;19926;-75
2023/08/25 10:27:39;;;;;;;;;;;;;;;25.95;36.08;94987.66;4999842;28;19913;-75
2023/08/25 10:30:06;;;;;;;;;;;;;;;26.29;36.76;94980.41;5003447;28;19997;-75
2023/08/25 10:32:50;;;;;;;;;;;;;;;26.53;37.50;94978.66;4995943;28;19926;-75
2023/08/25 10:35:15;;;;;;;;;;;;;;;26.88;34.53;94971.03;4980911;28;19926;-76
2023/08/25 10:37:40;;;;;;;;;;;;;;;27.10;34.33;94981.34;4981748;28;20020;-76
2023/08/25 10:40:06;;;;;;;;;;;;;;;27.01;33.57;94981.19;4981541;28;19922;-76
2023/08/25 10:42:32;;;;;;;;;;;;;;;26.79;33.47;94975.56;5010332;28;19961;-73
2023/08/25 10:45:24;;;;;;;;;;;;;;;26.59;35.70;94977.53;4971681;28;20076;-72
2023/08/25 10:47:51;;;;;;;;;;;;;;;27.10;31.86;94967.69;4974399;28;20417;-71
2023/08/25 10:50:19;;;;;;;;;;;;;;;27.87;32.93;94958.28;4971834;28;20012;-72
2023/08/25 10:52:44;;;;;;;;;;;;;;;28.02;33.84;94957.94;4977749;28;20064;-72
2023/08/25 10:55:22;;;;;;;;;;;;;;;28.71;30.28;94958.03;4973066;28;19973;-72
2023/08/25 10:57:50;;;;;;;;;;;;;;;28.98;31.42;94958.19;4977348;28;20088;-72
2023/08/25 11:00:25;;;;;;;;;;;;;;;29.62;32.33;94953.47;4971926;28;19930;-73
2023/08/25 11:02:51;;;;;;;;;;;;;;;29.40;30.00;94955.19;4971719;28;19928;-72
2023/08/25 11:05:26;;;;;;;;;;;;;;;29.25;30.63;94951.75;4979184;28;19980;-72
2023/08/25 11:07:51;;;;;;;;;;;;;;;28.97;31.87;94965.63;4975555;28;19926;-72
2023/08/25 11:10:17;;;;;;;;;;;;;;;27.59;32.44;94966.47;4975046;28;19956;-71
2023/08/25 11:12:43;;;;;;;;;;;;;;;28.30;31.68;94976.22;4976070;28;19984;-71
2023/08/25 11:15:08;;;;;;;;;;;;;;;27.07;34.08;94970.97;4974151;28;20623;-72
2023/08/25 11:17:34;;;;;;;;;;;;;;;27.08;33.76;94971.78;4973630;28;19926;-71
2023/08/25 11:19:59;;;;;;;;;;;;;;;27.23;33.47;94971.53;4973105;28;19926;-72
2023/08/25 11:22:24;;;;;;;;;;;;;;;24.71;37.21;94960.63;4973749;28;19921;-72
2023/08/25 11:24:49;;;;;;;;;;;;;;;25.45;35.51;94968.88;4974913;28;20597;-72
2023/08/25 11:27:16;;;;;;;;;;;;;;;26.89;34.40;94964.47;4977580;28;19925;-72
2023/08/25 11:29:44;;;;;;;;;;;;;;;26.20;36.13;94961.16;4977228;28;19954;-71
2023/08/25 11:32:12;;;;;;;;;;;;;;;26.59;35.04;94969.34;4977573;28;19922;-72
2023/08/25 11:34:38;;;;;;;;;;;;;;;25.63;36.76;94967.38;4974312;28;19930;-72
2023/08/25 11:37:03;;;;;;;;;;;;;;;26.72;36.29;94963.09;4970614;28;19974;-72
2023/08/25 11:39:28;;;;;;;;;;;;;;;27.71;33.23;94955.88;4972558;28;19937;-72
2023/08/25 11:41:54;;;;;;;;;;;;;;;27.84;33.97;94951.47;4975460;28;20339;-71
2023/08/25 11:44:19;;;;;;;;;;;;;;;26.83;34.82;94952.03;4973608;28;19925;-72
2023/08/25 11:46:45;;;;;;;;;;;;;;;27.41;32.73;94949.88;4971696;28;19933;-70
2023/08/25 11:49:10;;;;;;;;;;;;;;;28.01;33.53;94945.38;4976742;28;20008;-71
2023/08/25 11:51:36;;;;;;;;;;;;;;;28.13;31.51;94942.09;4973941;28;19926;-72
2023/08/25 11:54:02;;;;;;;;;;;;;;;28.05;33.50;94942.03;4973231;28;20020;-73
2023/08/25 11:56:27;;;;;;;;;;;;;;;28.58;31.84;94934.25;4976390;28;20036;-72
2023/08/25 11:58:52;;;;;;;;;;;;;;;28.33;31.31;94923.63;4975700;28;20017;-72
2023/08/25 12:01:18;;;;;;;;;;;;;;;27.98;32.06;94918.66;4976917;28;19969;-72
2023/08/25 12:03:44;;;;;;;;;;;;;;;28.16;31.87;94902.41;4976213;28;19937;-73
2023/08/25 12:06:09;;;;;;;;;;;;;;;27.88;33.64;94908.75;4978725;28;19969;-71
2023/08/25 12:08:35;;;;;;;;;;;;;;;27.68;32.84;94901.00;4971625;28;19926;-73
2023/08/25 12:11:00;;;;;;;;;;;;;;;27.37;32.64;94896.97;4975118;28;19929;-71
2023/08/25 12:13:26;;;;;;;;;;;;;;;27.35;33.24;94897.28;4976949;28;19967;-72
2023/08/25 12:15:52;;;;;;;;;;;;;;;27.20;33.76;94903.03;4977170;28;20016;-73
2023/08/25 12:18:17;;;;;;;;;;;;;;;26.92;34.56;94917.44;4976334;28;19954;-70
2023/08/25 12:20:43;;;;;;;;;;;;;;;26.59;34.12;94906.56;4976899;28;20020;-71
2023/08/25 12:23:08;;;;;;;;;;;;;;;26.04;37.44;94927.84;4960880;28;19964;-71
2023/08/25 12:25:34;;;;;;;;;;;;;;;26.04;38.13;94955.09;4977332;28;20012;-72
2023/08/25 12:28:00;;;;;;;;;;;;;;;25.50;37.67;94952.53;4973444;28;20305;-71
2023/08/25 12:30:25;;;;;;;;;;;;;;;24.54;42.30;94965.69;4974682;28;20170;-71
2023/08/25 12:32:51;;;;;;;;;;;;;;;23.83;43.90;94972.09;4970467;28;19971;-70
2023/08/25 12:35:16;;;;;;;;;;;;;;;22.06;47.51;94957.88;4970479;28;19933;-71
2023/08/25 12:37:41;;;;;;;;;;;;;;;20.84;50.42;94957.56;4975785;28;19918;-71
2023/08/25 12:40:07;;;;;;;;;;;;;;;20.26;52.14;94966.28;4968944;28;19926;-71